PDT,Max TemperatureF,Mean TemperatureF,Min TemperatureF,Max Dew PointF,MeanDew PointF,Min DewpointF,Max Humidity, Mean Humidity, Min Humidity, Max Sea Level PressureIn, Mean Sea Level PressureIn, Min Sea Level PressureIn, Max VisibilityMiles, Mean VisibilityMiles, Min VisibilityMiles, Max Wind SpeedMPH, Mean Wind SpeedMPH, Max Gust SpeedMPH,PrecipitationIn, CloudCover, Events, WindDirDegrees
2013-5-1,84,72,61,53,51,48,75,51,29,30.08,29.99,29.93,10,10,10,7,6,,0.00,0,,111
2013-5-2,93,74,55,53,14,-13,84,29,4,30.11,30.05,29.99,10,10,9,18,6,31,0.00,0,,17
2013-5-3,96,77,61,27,11,-5,24,10,4,30.00,29.86,29.77,10,10,9,13,3,17,0.00,0,,300
2013-5-4,78,67,57,53,48,36,75,53,30,29.82,29.76,29.72,10,10,7,15,5,22,0.00,2,,151
2013-5-5,69,62,57,52,48,45,82,63,47,29.93,29.88,29.80,10,10,10,21,12,29,0.00,8,,166
2013-5-6,68,60,55,54,51,43,94,76,43,30.00,29.93,29.87,10,7,2,12,7,,0.56,8,Rain,155
2013-5-7,69,62,55,54,49,44,94,67,45,30.05,30.00,29.96,10,9,2,10,4,,0.11,7,Rain,143
2013-5-8,73,64,57,49,45,40,72,53,41,30.08,30.05,30.02,10,10,10,12,2,,0.00,5,,253
2013-5-9,75,65,55,52,49,43,77,60,40,30.08,30.04,29.99,10,10,9,12,2,,0.00,1,,137
2013-5-10,87,70,57,57,53,46,78,57,26,30.06,30.03,29.96,10,10,7,9,3,,0.00,0,,140
2013-5-11,99,79,60,58,50,39,78,45,13,30.06,30.01,29.95,10,10,7,12,2,17,0.00,0,,235
2013-5-12,105,84,66,58,48,29,73,37,7,30.03,29.96,29.89,10,10,8,13,2,21,0.00,0,,271
2013-5-13,102,86,71,54,42,24,51,26,8,29.94,29.90,29.86,10,10,10,14,3,21,0.00,0,,280
2013-5-14,86,74,63,53,48,40,61,43,21,29.98,29.91,29.86,10,10,10,16,4,22,0.00,0,,115
2013-5-15,79,68,57,52,51,45,81,58,33,30.02,29.97,29.91,10,10,6,12,3,,0.00,1,,144
2013-5-16,77,67,59,53,52,51,81,65,44,29.97,29.92,29.87,10,9,5,13,5,16,0.00,4,,145
2013-5-17,77,68,60,53,52,51,75,61,44,29.97,29.93,29.89,10,10,8,15,6,16,0.00,4,,152
2013-5-18,78,68,57,53,51,47,81,60,37,30.04,29.98,29.93,10,10,10,10,3,,0.00,1,,152
2013-5-19,82,69,57,55,52,48,75,56,39,29.96,29.91,29.85,10,10,10,12,3,,0.00,0,,129
2013-5-20,96,77,59,56,52,26,78,53,9,29.93,29.89,29.84,10,10,10,13,3,,0.00,0,,118
2013-5-21,86,72,60,58,56,52,84,66,33,29.94,29.87,29.79,10,8,4,13,5,,0.00,3,,134
2013-5-22,77,68,61,56,52,44,83,60,43,29.83,29.79,29.74,10,9,6,14,6,20,0.00,4,,143
2013-5-23,73,66,59,52,47,41,72,54,39,29.91,29.86,29.80,10,10,10,10,4,16,0.00,5,,179
2013-5-24,75,65,55,51,47,41,72,53,39,29.97,29.93,29.90,10,10,10,12,2,18,0.00,2,,171
2013-5-25,75,66,57,52,49,44,82,58,38,30.01,29.97,29.94,10,10,8,13,3,,0.00,3,,160
2013-5-26,75,64,55,52,50,48,81,60,41,30.04,29.99,29.96,10,10,9,12,4,16,0.00,1,,134
2013-5-27,82,68,57,55,52,49,88,64,36,29.97,29.91,29.83,10,10,8,13,3,18,0.00,2,,139
2013-5-28,88,72,59,54,48,41,83,47,25,29.86,29.78,29.71,10,10,10,21,7,29,0.00,0,,8
2013-5-29,93,76,61,56,46,33,83,38,16,29.77,29.72,29.67,10,10,10,36,13,44,0.00,0,,312
2013-5-30,84,73,62,57,55,53,80,58,36,29.85,29.79,29.73,10,10,7,10,5,21,0.00,0,,125
2013-5-31,86,74,62,58,56,53,82,62,36,29.89,29.85,29.78,10,9,6,9,5,,0.00,3,,154